Terminal Aerodrome Forecast
Issued by NWS Upton, NY

Home | Current Version | Previous Version | Text Only | Print | Product List | Glossary On
Versions: 1 2 3 4 5 6 7 8 9 10 11 12 13 14 15 16 17 18 19 20 21 22 23 24 25 26 27 28 29
000
FTUS41 KOKX 061512 AAB
TAFJFK
TAF AMD
KJFK 061512Z 0615/0718 05008KT P6SM SCT100 BKN250
     FM061800 11010KT P6SM SCT035 BKN100
     FM062300 10010G17KT 5SM -RA BKN030 BKN100
     FM070100 09010G17KT 4SM -RA BR BKN012 OVC020
     FM070300 06009G15KT 3SM -RADZ BR BKN007 OVC010
     FM071200 06006KT 3SM -DZ BR BKN007 OVC010=

USA.gov is the U.S. government's official web portal to all federal, state and local government web resources and services.